sensor_id;sensor_type;location;lat;lon;timestamp;temperature;humidity
4757;DHT22;2392;52.578;13.426;2022-10-16T00:00:34;15.90;99.90
4757;DHT22;2392;52.578;13.426;2022-10-16T00:03:03;15.80;99.90
4757;DHT22;2392;52.578;13.426;2022-10-16T00:05:30;15.80;99.90
4757;DHT22;2392;52.578;13.426;2022-10-16T00:07:57;15.80;99.90
4757;DHT22;2392;52.578;13.426;2022-10-16T00:10:24;15.80;99.90
4757;DHT22;2392;52.578;13.426;2022-10-16T00:12:50;15.90;99.90
4757;DHT22;2392;52.578;13.426;2022-10-16T00:15:17;15.90;99.90
4757;DHT22;2392;52.578;13.426;2022-10-16T00:17:44;15.90;99.90
4757;DHT22;2392;52.578;13.426;2022-10-16T00:20:12;15.90;99.90
4757;DHT22;2392;52.578;13.426;2022-10-16T00:22:39;15.90;99.90
4757;DHT22;2392;52.578;13.426;2022-10-16T00:25:06;15.90;99.90
4757;DHT22;2392;52.578;13.426;2022-10-16T00:27:33;15.90;99.90
4757;DHT22;2392;52.578;13.426;2022-10-16T00:30:01;15.90;99.90
4757;DHT22;2392;52.578;13.426;2022-10-16T00:32:27;15.90;99.90
4757;DHT22;2392;52.578;13.426;2022-10-16T00:34:55;15.90;99.90
4757;DHT22;2392;52.578;13.426;2022-10-16T00:37:23;15.90;99.90
4757;DHT22;2392;52.578;13.426;2022-10-16T00:39:50;15.90;99.90
4757;DHT22;2392;52.578;13.426;2022-10-16T00:42:17;15.90;99.90
4757;DHT22;2392;52.578;13.426;2022-10-16T00:44:48;15.90;99.90
4757;DHT22;2392;52.578;13.426;2022-10-16T00:47:21;16.00;99.90
4757;DHT22;2392;52.578;13.426;2022-10-16T00:49:51;16.00;99.90
4757;DHT22;2392;52.578;13.426;2022-10-16T00:52:19;16.00;99.90
4757;DHT22;2392;52.578;13.426;2022-10-16T00:54:50;15.90;99.90
4757;DHT22;2392;52.578;13.426;2022-10-16T00:57:17;16.00;99.90
4757;DHT22;2392;52.578;13.426;2022-10-16T00:59:43;16.00;99.90
4757;DHT22;2392;52.578;13.426;2022-10-16T01:02:14;16.00;99.90
4757;DHT22;2392;52.578;13.426;2022-10-16T01:04:44;16.00;99.90
4757;DHT22;2392;52.578;13.426;2022-10-16T01:07:16;16.00;99.90
4757;DHT22;2392;52.578;13.426;2022-10-16T01:10:01;16.00;99.90
4757;DHT22;2392;52.578;13.426;2022-10-16T01:12:36;16.00;99.90
4757;DHT22;2392;52.578;13.426;2022-10-16T01:15:10;16.00;99.90
4757;DHT22;2392;52.578;13.426;2022-10-16T01:17:43;16.00;99.90
4757;DHT22;2392;52.578;13.426;2022-10-16T01:20:18;16.00;99.90
4757;DHT22;2392;52.578;13.426;2022-10-16T01:22:58;16.00;99.90
4757;DHT22;2392;52.578;13.426;2022-10-16T01:25:37;16.00;99.90
4757;DHT22;2392;52.578;13.426;2022-10-16T01:28:09;16.00;99.90
4757;DHT22;2392;52.578;13.426;2022-10-16T01:30:38;16.00;99.90
4757;DHT22;2392;52.578;13.426;2022-10-16T01:33:12;16.00;99.90
4757;DHT22;2392;52.578;13.426;2022-10-16T01:35:43;16.00;99.90
4757;DHT22;2392;52.578;13.426;2022-10-16T01:38:15;16.00;99.90
4757;DHT22;2392;52.578;13.426;2022-10-16T01:40:46;16.00;99.90
4757;DHT22;2392;52.578;13.426;2022-10-16T01:43:19;16.00;99.90
4757;DHT22;2392;52.578;13.426;2022-10-16T01:45:47;16.00;99.90
4757;DHT22;2392;52.578;13.426;2022-10-16T01:48:17;16.00;99.90
4757;DHT22;2392;52.578;13.426;2022-10-16T01:50:50;16.00;99.90
4757;DHT22;2392;52.578;13.426;2022-10-16T01:53:19;16.00;99.90
4757;DHT22;2392;52.578;13.426;2022-10-16T01:55:47;16.00;99.90
4757;DHT22;2392;52.578;13.426;2022-10-16T01:58:16;16.00;99.90
4757;DHT22;2392;52.578;13.426;2022-10-16T02:00:45;15.90;99.90
4757;DHT22;2392;52.578;13.426;2022-10-16T02:03:15;15.90;99.90
4757;DHT22;2392;52.578;13.426;2022-10-16T02:05:46;15.90;99.90
4757;DHT22;2392;52.578;13.426;2022-10-16T02:08:13;15.90;99.90
4757;DHT22;2392;52.578;13.426;2022-10-16T02:10:40;15.90;99.90
4757;DHT22;2392;52.578;13.426;2022-10-16T02:13:11;15.90;99.90
4757;DHT22;2392;52.578;13.426;2022-10-16T02:15:41;15.90;99.90
4757;DHT22;2392;52.578;13.426;2022-10-16T02:18:09;15.90;99.90
4757;DHT22;2392;52.578;13.426;2022-10-16T02:20:40;15.90;99.90
4757;DHT22;2392;52.578;13.426;2022-10-16T02:23:12;15.90;99.90
4757;DHT22;2392;52.578;13.426;2022-10-16T02:25:44;15.90;99.90
4757;DHT22;2392;52.578;13.426;2022-10-16T02:28:15;16.00;99.90
4757;DHT22;2392;52.578;13.426;2022-10-16T02:30:47;15.90;99.90
4757;DHT22;2392;52.578;13.426;2022-10-16T02:33:16;15.90;99.90
4757;DHT22;2392;52.578;13.426;2022-10-16T02:35:45;15.90;99.90
4757;DHT22;2392;52.578;13.426;2022-10-16T02:38:14;15.90;99.90
4757;DHT22;2392;52.578;13.426;2022-10-16T02:40:42;15.90;99.90
4757;DHT22;2392;52.578;13.426;2022-10-16T02:43:09;15.90;99.90
4757;DHT22;2392;52.578;13.426;2022-10-16T02:45:36;15.90;99.90
4757;DHT22;2392;52.578;13.426;2022-10-16T02:48:05;15.90;99.90
4757;DHT22;2392;52.578;13.426;2022-10-16T02:50:32;15.90;99.90
4757;DHT22;2392;52.578;13.426;2022-10-16T02:52:59;15.90;99.90
4757;DHT22;2392;52.578;13.426;2022-10-16T02:55:26;15.90;99.90
4757;DHT22;2392;52.578;13.426;2022-10-16T02:57:53;15.90;99.90
4757;DHT22;2392;52.578;13.426;2022-10-16T03:00:20;15.90;99.90
4757;DHT22;2392;52.578;13.426;2022-10-16T03:02:47;15.90;99.90
4757;DHT22;2392;52.578;13.426;2022-10-16T03:05:16;15.90;99.90
4757;DHT22;2392;52.578;13.426;2022-10-16T03:07:42;15.90;99.90
4757;DHT22;2392;52.578;13.426;2022-10-16T03:10:09;15.90;99.90
4757;DHT22;2392;52.578;13.426;2022-10-16T03:12:36;15.90;99.90
4757;DHT22;2392;52.578;13.426;2022-10-16T03:15:03;15.90;99.90
4757;DHT22;2392;52.578;13.426;2022-10-16T03:17:31;15.80;99.90
4757;DHT22;2392;52.578;13.426;2022-10-16T03:19:58;15.80;99.90
4757;DHT22;2392;52.578;13.426;2022-10-16T03:22:26;15.80;99.90
4757;DHT22;2392;52.578;13.426;2022-10-16T03:24:53;15.80;99.90
4757;DHT22;2392;52.578;13.426;2022-10-16T03:27:20;15.80;99.90
4757;DHT22;2392;52.578;13.426;2022-10-16T03:29:47;15.70;99.90
4757;DHT22;2392;52.578;13.426;2022-10-16T03:32:14;15.70;99.90
4757;DHT22;2392;52.578;13.426;2022-10-16T03:34:41;15.70;99.90
4757;DHT22;2392;52.578;13.426;2022-10-16T03:37:08;15.70;99.90
4757;DHT22;2392;52.578;13.426;2022-10-16T03:39:36;15.70;99.90
4757;DHT22;2392;52.578;13.426;2022-10-16T03:42:03;15.70;99.90
4757;DHT22;2392;52.578;13.426;2022-10-16T03:44:30;15.60;99.90
4757;DHT22;2392;52.578;13.426;2022-10-16T03:46:57;15.60;99.90
4757;DHT22;2392;52.578;13.426;2022-10-16T03:49:23;15.60;99.90
4757;DHT22;2392;52.578;13.426;2022-10-16T03:51:50;15.60;99.90
4757;DHT22;2392;52.578;13.426;2022-10-16T03:54:17;15.50;99.90
4757;DHT22;2392;52.578;13.426;2022-10-16T03:56:45;15.50;99.90
4757;DHT22;2392;52.578;13.426;2022-10-16T03:59:12;15.40;99.90
4757;DHT22;2392;52.578;13.426;2022-10-16T04:01:39;15.40;99.90
4757;DHT22;2392;52.578;13.426;2022-10-16T04:04:06;15.40;99.90
4757;DHT22;2392;52.578;13.426;2022-10-16T04:06:33;15.40;99.90
4757;DHT22;2392;52.578;13.426;2022-10-16T04:09:00;15.40;99.90
4757;DHT22;2392;52.578;13.426;2022-10-16T04:11:26;15.40;99.90
4757;DHT22;2392;52.578;13.426;2022-10-16T04:13:55;15.40;99.90
4757;DHT22;2392;52.578;13.426;2022-10-16T04:16:21;15.40;99.90
4757;DHT22;2392;52.578;13.426;2022-10-16T04:18:48;15.40;99.90
4757;DHT22;2392;52.578;13.426;2022-10-16T04:21:15;15.30;99.90
4757;DHT22;2392;52.578;13.426;2022-10-16T04:23:42;15.30;99.90
4757;DHT22;2392;52.578;13.426;2022-10-16T04:26:09;15.40;99.90
4757;DHT22;2392;52.578;13.426;2022-10-16T04:28:36;15.30;99.90
4757;DHT22;2392;52.578;13.426;2022-10-16T04:31:05;15.30;99.90
4757;DHT22;2392;52.578;13.426;2022-10-16T04:33:32;15.30;99.90
4757;DHT22;2392;52.578;13.426;2022-10-16T04:36:00;15.30;99.90
4757;DHT22;2392;52.578;13.426;2022-10-16T04:38:27;15.30;99.90
4757;DHT22;2392;52.578;13.426;2022-10-16T04:40:54;15.30;99.90
4757;DHT22;2392;52.578;13.426;2022-10-16T04:43:21;15.20;99.90
4757;DHT22;2392;52.578;13.426;2022-10-16T04:45:48;15.30;99.90
4757;DHT22;2392;52.578;13.426;2022-10-16T04:48:18;15.20;99.90
4757;DHT22;2392;52.578;13.426;2022-10-16T04:50:44;15.20;99.90
4757;DHT22;2392;52.578;13.426;2022-10-16T04:53:11;15.20;99.90
4757;DHT22;2392;52.578;13.426;2022-10-16T04:55:38;15.20;99.90
4757;DHT22;2392;52.578;13.426;2022-10-16T04:58:05;15.10;99.90
4757;DHT22;2392;52.578;13.426;2022-10-16T05:00:32;15.10;99.90
4757;DHT22;2392;52.578;13.426;2022-10-16T05:02:59;15.10;99.90
4757;DHT22;2392;52.578;13.426;2022-10-16T05:05:28;15.10;99.90
4757;DHT22;2392;52.578;13.426;2022-10-16T05:07:55;15.10;99.90
4757;DHT22;2392;52.578;13.426;2022-10-16T05:10:21;15.10;99.90
4757;DHT22;2392;52.578;13.426;2022-10-16T05:12:48;15.10;99.90
4757;DHT22;2392;52.578;13.426;2022-10-16T05:15:16;15.00;99.90
4757;DHT22;2392;52.578;13.426;2022-10-16T05:17:44;15.10;99.90
4757;DHT22;2392;52.578;13.426;2022-10-16T05:20:11;15.00;99.90
4757;DHT22;2392;52.578;13.426;2022-10-16T05:22:39;15.00;99.90
4757;DHT22;2392;52.578;13.426;2022-10-16T05:25:06;15.00;99.90
4757;DHT22;2392;52.578;13.426;2022-10-16T05:27:33;15.00;99.90
4757;DHT22;2392;52.578;13.426;2022-10-16T05:30:00;15.00;99.90
4757;DHT22;2392;52.578;13.426;2022-10-16T05:32:27;15.00;99.90
4757;DHT22;2392;52.578;13.426;2022-10-16T05:34:54;14.90;99.90
4757;DHT22;2392;52.578;13.426;2022-10-16T05:37:21;14.90;99.90
4757;DHT22;2392;52.578;13.426;2022-10-16T05:39:49;15.00;99.90
4757;DHT22;2392;52.578;13.426;2022-10-16T05:42:15;15.00;99.90
4757;DHT22;2392;52.578;13.426;2022-10-16T05:44:42;14.90;99.90
4757;DHT22;2392;52.578;13.426;2022-10-16T05:47:09;14.90;99.90
4757;DHT22;2392;52.578;13.426;2022-10-16T05:49:36;15.00;99.90
4757;DHT22;2392;52.578;13.426;2022-10-16T05:52:04;15.00;99.90
4757;DHT22;2392;52.578;13.426;2022-10-16T05:54:34;15.00;99.90
4757;DHT22;2392;52.578;13.426;2022-10-16T05:57:02;15.00;99.90
4757;DHT22;2392;52.578;13.426;2022-10-16T05:59:31;15.00;99.90
4757;DHT22;2392;52.578;13.426;2022-10-16T06:01:58;15.00;99.90
4757;DHT22;2392;52.578;13.426;2022-10-16T06:04:24;15.00;99.90
4757;DHT22;2392;52.578;13.426;2022-10-16T06:06:51;15.00;99.90
4757;DHT22;2392;52.578;13.426;2022-10-16T06:09:18;15.10;99.90
4757;DHT22;2392;52.578;13.426;2022-10-16T06:11:45;15.10;99.90
4757;DHT22;2392;52.578;13.426;2022-10-16T06:14:13;15.10;99.90
4757;DHT22;2392;52.578;13.426;2022-10-16T06:16:40;15.10;99.90
4757;DHT22;2392;52.578;13.426;2022-10-16T06:19:06;15.10;99.90
4757;DHT22;2392;52.578;13.426;2022-10-16T06:21:34;15.10;99.90
4757;DHT22;2392;52.578;13.426;2022-10-16T06:24:01;15.10;99.90
4757;DHT22;2392;52.578;13.426;2022-10-16T06:26:30;15.10;99.90
4757;DHT22;2392;52.578;13.426;2022-10-16T06:28:58;15.20;99.90
4757;DHT22;2392;52.578;13.426;2022-10-16T06:31:28;15.20;99.90
4757;DHT22;2392;52.578;13.426;2022-10-16T06:33:57;15.20;99.90
4757;DHT22;2392;52.578;13.426;2022-10-16T06:36:25;15.30;99.90
4757;DHT22;2392;52.578;13.426;2022-10-16T06:38:52;15.30;99.90
4757;DHT22;2392;52.578;13.426;2022-10-16T06:41:20;15.30;99.90
4757;DHT22;2392;52.578;13.426;2022-10-16T06:43:48;15.30;99.90
4757;DHT22;2392;52.578;13.426;2022-10-16T06:46:16;15.30;99.90
4757;DHT22;2392;52.578;13.426;2022-10-16T06:48:45;15.30;99.90
4757;DHT22;2392;52.578;13.426;2022-10-16T06:51:13;15.30;99.90
4757;DHT22;2392;52.578;13.426;2022-10-16T06:53:42;15.40;99.90
4757;DHT22;2392;52.578;13.426;2022-10-16T06:56:10;15.40;99.90
4757;DHT22;2392;52.578;13.426;2022-10-16T06:58:37;15.40;99.90
4757;DHT22;2392;52.578;13.426;2022-10-16T07:01:06;15.40;99.90
4757;DHT22;2392;52.578;13.426;2022-10-16T07:03:35;15.50;99.90
4757;DHT22;2392;52.578;13.426;2022-10-16T07:06:04;15.50;99.90
4757;DHT22;2392;52.578;13.426;2022-10-16T07:08:34;15.50;99.90
4757;DHT22;2392;52.578;13.426;2022-10-16T07:11:04;15.50;99.90
4757;DHT22;2392;52.578;13.426;2022-10-16T07:13:33;15.50;99.90
4757;DHT22;2392;52.578;13.426;2022-10-16T07:16:04;15.60;99.90
4757;DHT22;2392;52.578;13.426;2022-10-16T07:18:31;15.60;99.90
4757;DHT22;2392;52.578;13.426;2022-10-16T07:21:04;15.70;99.90
4757;DHT22;2392;52.578;13.426;2022-10-16T07:23:31;15.70;99.90
4757;DHT22;2392;52.578;13.426;2022-10-16T07:25:58;15.80;99.90
4757;DHT22;2392;52.578;13.426;2022-10-16T07:28:25;15.80;99.90
4757;DHT22;2392;52.578;13.426;2022-10-16T07:30:52;15.80;99.90
4757;DHT22;2392;52.578;13.426;2022-10-16T07:33:19;15.90;99.90
4757;DHT22;2392;52.578;13.426;2022-10-16T07:35:50;16.00;99.90
4757;DHT22;2392;52.578;13.426;2022-10-16T07:38:18;16.00;99.90
4757;DHT22;2392;52.578;13.426;2022-10-16T07:40:45;16.00;99.90
4757;DHT22;2392;52.578;13.426;2022-10-16T07:43:13;16.10;99.90
4757;DHT22;2392;52.578;13.426;2022-10-16T07:45:46;16.10;99.90
4757;DHT22;2392;52.578;13.426;2022-10-16T07:48:13;16.20;99.90
4757;DHT22;2392;52.578;13.426;2022-10-16T07:50:40;16.20;99.90
4757;DHT22;2392;52.578;13.426;2022-10-16T07:53:07;16.20;99.90
4757;DHT22;2392;52.578;13.426;2022-10-16T07:55:35;16.30;99.90
4757;DHT22;2392;52.578;13.426;2022-10-16T07:58:02;16.30;99.90
4757;DHT22;2392;52.578;13.426;2022-10-16T08:00:29;16.30;99.90
4757;DHT22;2392;52.578;13.426;2022-10-16T08:02:56;16.40;99.90
4757;DHT22;2392;52.578;13.426;2022-10-16T08:05:25;16.40;99.90
4757;DHT22;2392;52.578;13.426;2022-10-16T08:07:52;16.40;99.90
4757;DHT22;2392;52.578;13.426;2022-10-16T08:10:21;16.50;99.90
4757;DHT22;2392;52.578;13.426;2022-10-16T08:12:49;16.50;99.90
4757;DHT22;2392;52.578;13.426;2022-10-16T08:15:17;16.50;99.90
4757;DHT22;2392;52.578;13.426;2022-10-16T08:17:43;16.50;99.90
4757;DHT22;2392;52.578;13.426;2022-10-16T08:20:11;16.50;99.90
4757;DHT22;2392;52.578;13.426;2022-10-16T08:22:37;16.50;99.90
4757;DHT22;2392;52.578;13.426;2022-10-16T08:25:05;16.50;99.90
4757;DHT22;2392;52.578;13.426;2022-10-16T08:27:32;16.60;99.90
4757;DHT22;2392;52.578;13.426;2022-10-16T08:30:00;16.60;99.90
4757;DHT22;2392;52.578;13.426;2022-10-16T08:32:27;16.60;99.90
4757;DHT22;2392;52.578;13.426;2022-10-16T08:34:54;16.70;99.90
4757;DHT22;2392;52.578;13.426;2022-10-16T08:37:21;16.70;99.90
4757;DHT22;2392;52.578;13.426;2022-10-16T08:39:48;16.80;99.90
4757;DHT22;2392;52.578;13.426;2022-10-16T08:42:21;16.80;99.90
4757;DHT22;2392;52.578;13.426;2022-10-16T08:48:00;16.80;99.90
4757;DHT22;2392;52.578;13.426;2022-10-16T08:50:30;16.80;99.90
4757;DHT22;2392;52.578;13.426;2022-10-16T08:52:58;16.90;99.90
4757;DHT22;2392;52.578;13.426;2022-10-16T08:55:31;16.90;99.90
4757;DHT22;2392;52.578;13.426;2022-10-16T08:58:00;17.00;99.90
4757;DHT22;2392;52.578;13.426;2022-10-16T09:00:29;17.00;99.90
4757;DHT22;2392;52.578;13.426;2022-10-16T09:03:04;17.10;99.90
4757;DHT22;2392;52.578;13.426;2022-10-16T09:05:49;17.10;99.90
4757;DHT22;2392;52.578;13.426;2022-10-16T09:08:23;17.20;99.90
4757;DHT22;2392;52.578;13.426;2022-10-16T09:10:57;17.30;99.90
4757;DHT22;2392;52.578;13.426;2022-10-16T09:13:29;17.40;99.90
4757;DHT22;2392;52.578;13.426;2022-10-16T09:16:10;17.50;99.90
4757;DHT22;2392;52.578;13.426;2022-10-16T09:18:44;17.60;99.90
4757;DHT22;2392;52.578;13.426;2022-10-16T09:21:17;17.70;99.90
4757;DHT22;2392;52.578;13.426;2022-10-16T09:23:45;17.80;99.90
4757;DHT22;2392;52.578;13.426;2022-10-16T09:26:13;17.90;99.90
4757;DHT22;2392;52.578;13.426;2022-10-16T09:28:41;18.00;99.90
4757;DHT22;2392;52.578;13.426;2022-10-16T09:31:15;18.10;99.90
4757;DHT22;2392;52.578;13.426;2022-10-16T09:33:45;18.10;99.90
4757;DHT22;2392;52.578;13.426;2022-10-16T09:36:13;18.20;99.90
4757;DHT22;2392;52.578;13.426;2022-10-16T09:38:40;18.40;99.90
4757;DHT22;2392;52.578;13.426;2022-10-16T09:41:15;18.50;99.90
4757;DHT22;2392;52.578;13.426;2022-10-16T09:43:49;18.70;99.90
4757;DHT22;2392;52.578;13.426;2022-10-16T09:46:27;19.00;99.90
4757;DHT22;2392;52.578;13.426;2022-10-16T09:48:56;19.40;99.90
4757;DHT22;2392;52.578;13.426;2022-10-16T09:51:25;19.80;99.90
4757;DHT22;2392;52.578;13.426;2022-10-16T09:53:55;20.10;99.90
4757;DHT22;2392;52.578;13.426;2022-10-16T09:56:24;20.30;99.90
4757;DHT22;2392;52.578;13.426;2022-10-16T09:58:52;20.50;99.90
4757;DHT22;2392;52.578;13.426;2022-10-16T10:01:20;20.70;99.90
4757;DHT22;2392;52.578;13.426;2022-10-16T10:03:48;20.80;99.90
4757;DHT22;2392;52.578;13.426;2022-10-16T10:06:29;21.10;99.90
4757;DHT22;2392;52.578;13.426;2022-10-16T10:09:05;21.70;99.90
4757;DHT22;2392;52.578;13.426;2022-10-16T10:11:44;22.70;99.90
4757;DHT22;2392;52.578;13.426;2022-10-16T10:14:17;23.00;99.90
4757;DHT22;2392;52.578;13.426;2022-10-16T10:16:45;22.90;99.90
4757;DHT22;2392;52.578;13.426;2022-10-16T10:19:16;22.40;99.90
4757;DHT22;2392;52.578;13.426;2022-10-16T10:21:43;21.90;99.90
4757;DHT22;2392;52.578;13.426;2022-10-16T10:24:12;21.20;99.90
4757;DHT22;2392;52.578;13.426;2022-10-16T10:26:44;20.60;99.90
4757;DHT22;2392;52.578;13.426;2022-10-16T10:29:20;20.30;99.90
4757;DHT22;2392;52.578;13.426;2022-10-16T10:31:58;19.90;99.90
4757;DHT22;2392;52.578;13.426;2022-10-16T10:34:43;19.80;99.90
4757;DHT22;2392;52.578;13.426;2022-10-16T10:37:25;19.70;99.90
4757;DHT22;2392;52.578;13.426;2022-10-16T10:39:56;19.60;99.90
4757;DHT22;2392;52.578;13.426;2022-10-16T10:42:27;19.50;99.90
4757;DHT22;2392;52.578;13.426;2022-10-16T10:45:14;19.50;99.90
4757;DHT22;2392;52.578;13.426;2022-10-16T10:47:50;19.60;99.90
4757;DHT22;2392;52.578;13.426;2022-10-16T10:50:25;19.80;99.90
4757;DHT22;2392;52.578;13.426;2022-10-16T10:53:03;20.20;99.90
4757;DHT22;2392;52.578;13.426;2022-10-16T10:55:38;20.60;99.90
4757;DHT22;2392;52.578;13.426;2022-10-16T10:58:27;21.20;99.90
4757;DHT22;2392;52.578;13.426;2022-10-16T11:01:04;22.00;99.90
4757;DHT22;2392;52.578;13.426;2022-10-16T11:03:53;22.70;99.90
4757;DHT22;2392;52.578;13.426;2022-10-16T11:06:29;23.10;99.90
4757;DHT22;2392;52.578;13.426;2022-10-16T11:09:00;23.50;99.90
4757;DHT22;2392;52.578;13.426;2022-10-16T11:11:32;23.60;99.90
4757;DHT22;2392;52.578;13.426;2022-10-16T11:14:05;23.40;99.90
4757;DHT22;2392;52.578;13.426;2022-10-16T11:16:38;22.80;99.90
4757;DHT22;2392;52.578;13.426;2022-10-16T11:19:13;22.40;99.90
4757;DHT22;2392;52.578;13.426;2022-10-16T11:21:46;22.20;99.90
4757;DHT22;2392;52.578;13.426;2022-10-16T11:24:20;21.80;99.90
4757;DHT22;2392;52.578;13.426;2022-10-16T11:26:49;21.60;99.90
4757;DHT22;2392;52.578;13.426;2022-10-16T11:29:21;21.30;99.90
4757;DHT22;2392;52.578;13.426;2022-10-16T11:31:53;21.00;99.90
4757;DHT22;2392;52.578;13.426;2022-10-16T11:34:25;20.90;99.90
4757;DHT22;2392;52.578;13.426;2022-10-16T11:36:59;20.90;99.90
4757;DHT22;2392;52.578;13.426;2022-10-16T11:39:29;20.90;99.90
4757;DHT22;2392;52.578;13.426;2022-10-16T11:42:00;21.00;99.90
4757;DHT22;2392;52.578;13.426;2022-10-16T11:44:44;21.30;99.90
4757;DHT22;2392;52.578;13.426;2022-10-16T11:47:27;21.70;99.90
4757;DHT22;2392;52.578;13.426;2022-10-16T11:49:59;22.20;99.90
4757;DHT22;2392;52.578;13.426;2022-10-16T11:52:35;22.40;99.90
4757;DHT22;2392;52.578;13.426;2022-10-16T11:55:08;22.80;99.90
4757;DHT22;2392;52.578;13.426;2022-10-16T11:57:42;22.80;99.90
4757;DHT22;2392;52.578;13.426;2022-10-16T12:00:19;22.80;99.90
4757;DHT22;2392;52.578;13.426;2022-10-16T12:02:53;22.60;99.90
4757;DHT22;2392;52.578;13.426;2022-10-16T12:05:25;22.70;99.90
4757;DHT22;2392;52.578;13.426;2022-10-16T12:08:04;22.60;99.90
4757;DHT22;2392;52.578;13.426;2022-10-16T12:10:33;22.70;99.90
4757;DHT22;2392;52.578;13.426;2022-10-16T12:13:03;22.80;99.90
4757;DHT22;2392;52.578;13.426;2022-10-16T12:15:32;22.90;99.90
4757;DHT22;2392;52.578;13.426;2022-10-16T12:18:00;23.20;99.90
4757;DHT22;2392;52.578;13.426;2022-10-16T12:20:29;23.40;99.90
4757;DHT22;2392;52.578;13.426;2022-10-16T12:23:00;23.70;99.90
4757;DHT22;2392;52.578;13.426;2022-10-16T12:25:29;23.80;99.90
4757;DHT22;2392;52.578;13.426;2022-10-16T12:28:05;23.80;99.90
4757;DHT22;2392;52.578;13.426;2022-10-16T12:30:35;23.40;99.90
4757;DHT22;2392;52.578;13.426;2022-10-16T12:33:04;23.10;99.90
4757;DHT22;2392;52.578;13.426;2022-10-16T12:35:33;22.70;99.90
4757;DHT22;2392;52.578;13.426;2022-10-16T12:38:15;22.60;99.90
4757;DHT22;2392;52.578;13.426;2022-10-16T12:40:44;22.30;99.90
4757;DHT22;2392;52.578;13.426;2022-10-16T12:43:26;22.20;99.90
4757;DHT22;2392;52.578;13.426;2022-10-16T12:46:02;22.00;99.90
4757;DHT22;2392;52.578;13.426;2022-10-16T12:48:29;22.00;99.90
4757;DHT22;2392;52.578;13.426;2022-10-16T12:50:57;21.80;99.90
4757;DHT22;2392;52.578;13.426;2022-10-16T12:53:26;21.60;99.90
4757;DHT22;2392;52.578;13.426;2022-10-16T12:56:03;21.60;99.90
4757;DHT22;2392;52.578;13.426;2022-10-16T12:58:48;21.60;99.90
4757;DHT22;2392;52.578;13.426;2022-10-16T13:01:28;21.60;99.90
4757;DHT22;2392;52.578;13.426;2022-10-16T13:04:29;21.70;99.90
4757;DHT22;2392;52.578;13.426;2022-10-16T13:07:09;21.60;99.90
4757;DHT22;2392;52.578;13.426;2022-10-16T13:09:53;21.60;99.90
4757;DHT22;2392;52.578;13.426;2022-10-16T13:12:39;21.40;99.90
4757;DHT22;2392;52.578;13.426;2022-10-16T13:15:35;21.30;99.90
4757;DHT22;2392;52.578;13.426;2022-10-16T13:18:12;21.10;99.90
4757;DHT22;2392;52.578;13.426;2022-10-16T13:21:01;21.00;99.90
4757;DHT22;2392;52.578;13.426;2022-10-16T13:23:36;21.00;99.90
4757;DHT22;2392;52.578;13.426;2022-10-16T13:26:17;21.00;99.90
4757;DHT22;2392;52.578;13.426;2022-10-16T13:28:48;20.90;99.90
4757;DHT22;2392;52.578;13.426;2022-10-16T13:31:18;21.00;99.90
4757;DHT22;2392;52.578;13.426;2022-10-16T13:33:48;21.00;99.90
4757;DHT22;2392;52.578;13.426;2022-10-16T13:36:21;21.00;99.90
4757;DHT22;2392;52.578;13.426;2022-10-16T13:38:48;21.00;99.90
4757;DHT22;2392;52.578;13.426;2022-10-16T13:41:27;20.90;99.90
4757;DHT22;2392;52.578;13.426;2022-10-16T13:43:54;20.80;99.90
4757;DHT22;2392;52.578;13.426;2022-10-16T13:46:24;20.70;99.90
4757;DHT22;2392;52.578;13.426;2022-10-16T13:48:58;20.70;99.90
4757;DHT22;2392;52.578;13.426;2022-10-16T13:51:26;20.60;99.90
4757;DHT22;2392;52.578;13.426;2022-10-16T13:53:55;20.50;99.90
4757;DHT22;2392;52.578;13.426;2022-10-16T13:56:24;20.40;99.90
4757;DHT22;2392;52.578;13.426;2022-10-16T13:59:00;20.40;99.90
4757;DHT22;2392;52.578;13.426;2022-10-16T14:01:29;20.30;99.90
4757;DHT22;2392;52.578;13.426;2022-10-16T14:04:01;20.30;99.90
4757;DHT22;2392;52.578;13.426;2022-10-16T14:06:29;20.30;99.90
4757;DHT22;2392;52.578;13.426;2022-10-16T14:09:00;20.30;99.90
4757;DHT22;2392;52.578;13.426;2022-10-16T14:11:28;20.30;99.90
4757;DHT22;2392;52.578;13.426;2022-10-16T14:13:55;20.30;99.90
4757;DHT22;2392;52.578;13.426;2022-10-16T14:16:26;20.30;99.90
4757;DHT22;2392;52.578;13.426;2022-10-16T14:18:57;20.30;99.90
4757;DHT22;2392;52.578;13.426;2022-10-16T14:21:25;20.30;99.90
4757;DHT22;2392;52.578;13.426;2022-10-16T14:23:52;20.30;99.90
4757;DHT22;2392;52.578;13.426;2022-10-16T14:26:22;20.30;99.90
4757;DHT22;2392;52.578;13.426;2022-10-16T14:29:01;20.20;99.90
4757;DHT22;2392;52.578;13.426;2022-10-16T14:31:33;20.20;99.90
4757;DHT22;2392;52.578;13.426;2022-10-16T14:34:01;20.20;99.90
4757;DHT22;2392;52.578;13.426;2022-10-16T14:36:29;20.20;99.90
4757;DHT22;2392;52.578;13.426;2022-10-16T14:39:02;20.20;99.90
4757;DHT22;2392;52.578;13.426;2022-10-16T14:41:31;20.10;99.90
4757;DHT22;2392;52.578;13.426;2022-10-16T14:44:02;20.10;99.90
4757;DHT22;2392;52.578;13.426;2022-10-16T14:46:34;20.10;99.90
4757;DHT22;2392;52.578;13.426;2022-10-16T14:49:04;20.10;99.90
4757;DHT22;2392;52.578;13.426;2022-10-16T14:51:39;20.10;99.90
4757;DHT22;2392;52.578;13.426;2022-10-16T14:54:08;20.10;99.90
4757;DHT22;2392;52.578;13.426;2022-10-16T14:56:44;20.10;99.90
4757;DHT22;2392;52.578;13.426;2022-10-16T14:59:16;20.10;99.90
4757;DHT22;2392;52.578;13.426;2022-10-16T15:01:45;20.00;99.90
4757;DHT22;2392;52.578;13.426;2022-10-16T15:04:12;19.90;99.90
4757;DHT22;2392;52.578;13.426;2022-10-16T15:06:40;19.90;99.90
4757;DHT22;2392;52.578;13.426;2022-10-16T15:09:08;19.90;99.90
4757;DHT22;2392;52.578;13.426;2022-10-16T15:11:35;19.90;99.90
4757;DHT22;2392;52.578;13.426;2022-10-16T15:14:03;19.90;99.90
4757;DHT22;2392;52.578;13.426;2022-10-16T15:16:30;19.90;99.90
4757;DHT22;2392;52.578;13.426;2022-10-16T15:18:58;19.80;99.90
4757;DHT22;2392;52.578;13.426;2022-10-16T15:21:27;19.80;99.90
4757;DHT22;2392;52.578;13.426;2022-10-16T15:23:58;19.80;99.90
4757;DHT22;2392;52.578;13.426;2022-10-16T15:26:29;19.70;99.90
4757;DHT22;2392;52.578;13.426;2022-10-16T15:28:56;19.70;99.90
4757;DHT22;2392;52.578;13.426;2022-10-16T15:31:23;19.60;99.90
4757;DHT22;2392;52.578;13.426;2022-10-16T15:33:51;19.60;99.90
4757;DHT22;2392;52.578;13.426;2022-10-16T15:36:30;19.50;99.90
4757;DHT22;2392;52.578;13.426;2022-10-16T15:38:59;19.50;99.90
4757;DHT22;2392;52.578;13.426;2022-10-16T15:41:26;19.50;99.90
4757;DHT22;2392;52.578;13.426;2022-10-16T15:43:53;19.40;99.90
4757;DHT22;2392;52.578;13.426;2022-10-16T15:46:22;19.40;99.90
4757;DHT22;2392;52.578;13.426;2022-10-16T15:48:56;19.40;99.90
4757;DHT22;2392;52.578;13.426;2022-10-16T15:51:23;19.30;99.90
4757;DHT22;2392;52.578;13.426;2022-10-16T15:53:51;19.30;99.90
4757;DHT22;2392;52.578;13.426;2022-10-16T15:56:19;19.20;99.90
4757;DHT22;2392;52.578;13.426;2022-10-16T15:58:47;19.20;99.90
4757;DHT22;2392;52.578;13.426;2022-10-16T16:01:14;19.20;99.90
4757;DHT22;2392;52.578;13.426;2022-10-16T16:03:42;19.10;99.90
4757;DHT22;2392;52.578;13.426;2022-10-16T16:06:12;19.10;99.90